KASH/ASH METAR and TAF weather

Enter ICAO airport designator
Station Type Date Time Source
KASH METAR 2021/10/20 07:56 UTC NOAA

KASH 200756Z AUTO 00000KT 10SM OVC065 06/06 A2981 RMK AO2 SLP101 T00610061


Station Type Date Time Source
KASH Decoded METAR 2021/10/20 07:56 UTC NOAA

Nashua, Boire Field Airport, NH, United States (KASH) 42-46-54N 071-30-53W
Oct 20, 2021 - 03:56 AM EDT / 2021.10.20 0756 UTC
Wind: Calm:0
Visibility: 10 mile(s):0
Sky conditions: overcast
Temperature: 43.0 F (6.1 C)
Dew Point: 43.0 F (6.1 C)
Relative Humidity: 100%
Pressure (altimeter): 29.81 in. Hg (1009 hPa)
ob: KASH 200756Z AUTO 00000KT 10SM OVC065 06/06 A2981 RMK AO2 SLP101 T00610061
cycle: 8

Station Type Date Time Source
KASH TAF UTC NOAA

Error!

Example: see airport list